createdAt,value
2023-02-22T00:01:08.842Z,94.87
2023-02-22T00:03:39.543Z,94.66
2023-02-22T00:06:08.531Z,94.62
2023-02-22T00:08:39.027Z,94.40
2023-02-22T00:11:10.751Z,94.14
2023-02-22T00:13:39.673Z,94.07
2023-02-22T00:16:11.428Z,94.36
2023-02-22T00:18:41.683Z,94.19
2023-02-22T00:21:10.802Z,94.21
2023-02-22T00:23:43.542Z,94.06
2023-02-22T00:26:11.643Z,94.22
2023-02-22T00:28:39.906Z,94.54
2023-02-22T00:31:10.513Z,93.89
2023-02-22T00:33:47.496Z,93.10
2023-02-22T00:36:20.673Z,93.37
2023-02-22T00:38:50.032Z,93.56
2023-02-22T00:41:18.376Z,93.57
2023-02-22T00:43:46.933Z,93.74
2023-02-22T00:46:15.284Z,93.53
2023-02-22T00:48:44.511Z,93.84
2023-02-22T00:51:12.284Z,94.17
2023-02-22T00:53:41.790Z,94.24
2023-02-22T00:56:09.862Z,94.13
2023-02-22T00:58:37.712Z,94.68
2023-02-22T01:01:05.472Z,95.15
2023-02-22T01:03:33.106Z,94.80
2023-02-22T01:06:02.325Z,95.22
2023-02-22T01:08:31.355Z,95.58
2023-02-22T01:10:59.180Z,95.42
2023-02-22T01:13:26.941Z,94.79
2023-02-22T01:15:56.648Z,94.47
2023-02-22T01:18:25.973Z,94.84
2023-02-22T01:20:53.859Z,95.00
2023-02-22T01:23:22.691Z,94.86
2023-02-22T01:25:54.176Z,95.10
2023-02-22T01:28:22.391Z,94.84
2023-02-22T01:30:50.636Z,94.68
2023-02-22T01:33:18.555Z,94.76
2023-02-22T01:35:46.829Z,94.82
2023-02-22T01:38:16.078Z,94.90
2023-02-22T01:40:48.696Z,95.34
2023-02-22T01:43:20.223Z,95.35
2023-02-22T01:45:55.478Z,96.04
2023-02-22T01:48:27.231Z,96.07
2023-02-22T01:50:58.813Z,95.93
2023-02-22T01:53:30.205Z,96.62
2023-02-22T01:56:00.951Z,96.33
2023-02-22T01:58:29.729Z,95.95
2023-02-22T02:00:57.919Z,95.61
2023-02-22T02:03:29.749Z,94.60
2023-02-22T02:05:59.894Z,94.88
2023-02-22T02:08:33.081Z,94.41
2023-02-22T02:11:03.422Z,94.24
2023-02-22T02:13:30.978Z,93.74
2023-02-22T02:15:59.419Z,93.88
2023-02-22T02:18:28.451Z,93.45
2023-02-22T02:21:26.804Z,93.70
2023-02-22T02:24:13.402Z,93.68
2023-02-22T02:27:03.578Z,93.47
2023-02-22T02:30:04.902Z,93.98
2023-02-22T02:32:46.406Z,94.08
2023-02-22T02:35:21.626Z,94.38
2023-02-22T02:37:55.161Z,95.25
2023-02-22T02:40:28.708Z,95.51
2023-02-22T02:43:02.002Z,96.06
2023-02-22T02:45:33.605Z,95.89
2023-02-22T02:48:03.618Z,95.14
2023-02-22T02:50:34.842Z,95.31
2023-02-22T02:53:04.098Z,94.87
2023-02-22T02:55:35.056Z,95.10
2023-02-22T02:58:04.633Z,94.72
2023-02-22T03:00:39.373Z,94.55
2023-02-22T03:03:20.157Z,94.55
2023-02-22T03:06:03.327Z,94.88
2023-02-22T03:08:35.585Z,94.42
2023-02-22T03:11:14.939Z,94.49
2023-02-22T03:13:59.296Z,94.20
2023-02-22T03:16:33.456Z,94.46
2023-02-22T03:19:07.529Z,94.71
2023-02-22T03:21:43.445Z,94.31
2023-02-22T03:24:14.962Z,94.63
2023-02-22T03:26:45.879Z,94.42
2023-02-22T03:29:16.071Z,94.47
2023-02-22T03:31:48.428Z,94.65
2023-02-22T03:34:22.371Z,94.46
2023-02-22T03:36:55.871Z,94.68
2023-02-22T03:39:31.473Z,94.64
2023-02-22T03:42:02.082Z,94.65
2023-02-22T03:44:30.892Z,95.13
2023-02-22T03:47:01.959Z,95.10
2023-02-22T03:49:34.918Z,95.95
2023-02-22T03:52:03.776Z,96.05
2023-02-22T03:54:32.318Z,96.12
2023-02-22T03:57:02.412Z,96.13
2023-02-22T03:59:30.239Z,96.27
2023-02-22T04:01:58.927Z,96.42
2023-02-22T04:04:27.305Z,96.79
2023-02-22T04:06:57.352Z,96.22
2023-02-22T04:09:28.808Z,96.34
2023-02-22T04:18:18.955Z,95.76
2023-02-22T04:20:47.546Z,95.63
2023-02-22T04:23:17.672Z,95.70
2023-02-22T04:25:45.610Z,95.58
2023-02-22T04:28:14.164Z,95.83
2023-02-22T04:30:44.218Z,95.89
2023-02-22T04:33:16.639Z,95.72
2023-02-22T04:35:45.278Z,96.04
2023-02-22T04:38:13.512Z,95.74
2023-02-22T04:40:43.044Z,95.85
2023-02-22T04:43:10.640Z,95.71
2023-02-22T04:45:38.758Z,96.08
2023-02-22T04:48:07.817Z,96.63
2023-02-22T04:54:04.072Z,95.38
2023-02-22T05:00:15.625Z,96.37
2023-02-22T05:03:35.309Z,96.10
2023-02-22T05:06:03.657Z,95.59
2023-02-22T05:08:31.510Z,95.62
2023-02-22T05:10:59.575Z,95.88
2023-02-22T05:13:29.759Z,96.38
2023-02-22T05:15:57.932Z,97.46
2023-02-22T05:18:25.891Z,97.19
2023-02-22T05:20:56.990Z,97.30
2023-02-22T05:23:24.695Z,97.94
2023-02-22T05:25:53.737Z,97.47
2023-02-22T05:28:22.052Z,97.70
2023-02-22T05:30:50.973Z,97.59
2023-02-22T05:33:18.531Z,97.44
2023-02-22T05:35:46.261Z,97.37
2023-02-22T05:38:15.194Z,97.24
2023-02-22T05:40:43.813Z,97.54
2023-02-22T05:43:11.818Z,97.16
2023-02-22T05:45:39.397Z,96.40
2023-02-22T05:48:08.747Z,97.16
2023-02-22T05:50:36.615Z,97.20
2023-02-22T05:53:05.889Z,97.42
2023-02-22T05:55:33.576Z,96.89
2023-02-22T05:58:01.917Z,96.08
2023-02-22T06:00:32.005Z,96.40
2023-02-22T06:03:01.566Z,96.09
2023-02-22T06:05:31.747Z,96.33
2023-02-22T06:08:00.507Z,96.42
2023-02-22T06:10:29.517Z,95.78
2023-02-22T06:12:58.093Z,95.10
2023-02-22T06:15:26.779Z,95.26
2023-02-22T06:17:55.621Z,95.44
2023-02-22T06:20:24.671Z,95.26
2023-02-22T06:22:55.156Z,94.49
2023-02-22T06:25:24.956Z,95.32
2023-02-22T06:27:52.438Z,96.10
2023-02-22T06:30:22.830Z,95.58
2023-02-22T06:32:50.652Z,95.89
2023-02-22T06:35:18.283Z,96.67
2023-02-22T06:37:46.075Z,95.87
2023-02-22T06:40:15.738Z,95.61
2023-02-22T06:42:43.273Z,95.69
2023-02-22T06:45:11.322Z,96.13
2023-02-22T06:47:40.311Z,95.91
2023-02-22T06:50:09.280Z,96.16
2023-02-22T06:52:36.765Z,96.20
2023-02-22T06:55:04.385Z,96.56
2023-02-22T06:57:33.279Z,96.28
2023-02-22T07:00:00.765Z,96.53
2023-02-22T07:02:28.254Z,96.19
2023-02-22T07:04:55.734Z,97.12
2023-02-22T07:07:25.118Z,96.80
2023-02-22T07:09:52.620Z,96.51
2023-02-22T07:12:20.152Z,96.46
2023-02-22T07:14:49.154Z,96.68
2023-02-22T07:17:16.711Z,96.55
2023-02-22T07:19:44.170Z,96.39
2023-02-22T07:22:11.672Z,96.59
2023-02-22T07:24:40.921Z,95.98
2023-02-22T07:27:08.410Z,96.15
2023-02-22T07:29:36.478Z,95.94
2023-02-22T07:32:05.481Z,96.50
2023-02-22T07:34:32.966Z,96.53
2023-02-22T07:37:00.461Z,96.78
2023-02-22T07:39:28.102Z,96.36
2023-02-22T07:41:55.638Z,96.07
2023-02-22T07:44:23.101Z,95.92
2023-02-22T07:46:51.043Z,95.31
2023-02-22T07:49:20.176Z,95.84
2023-02-22T07:51:47.711Z,95.19
2023-02-22T07:54:15.230Z,95.82
2023-02-22T07:56:46.891Z,96.46
2023-02-22T07:59:14.666Z,96.19
2023-02-22T08:01:42.536Z,96.34
2023-02-22T08:04:10.070Z,96.30
2023-02-22T08:06:38.930Z,95.11
2023-02-22T08:09:06.403Z,95.59
2023-02-22T08:11:34.090Z,96.15
2023-02-22T08:14:01.551Z,95.56
2023-02-22T08:16:29.112Z,95.05
2023-02-22T08:18:56.667Z,94.01
2023-02-22T08:21:24.176Z,93.95
2023-02-22T08:23:54.379Z,94.06
2023-02-22T08:26:21.982Z,95.11
2023-02-22T08:28:49.717Z,94.96
2023-02-22T08:31:17.637Z,94.91
2023-02-22T08:33:48.791Z,95.03
2023-02-22T08:36:16.336Z,95.54
2023-02-22T08:38:43.833Z,95.60
2023-02-22T08:41:12.872Z,95.67
2023-02-22T08:43:40.403Z,94.88
2023-02-22T08:46:08.045Z,93.79
2023-02-22T08:48:35.569Z,93.71
2023-02-22T08:51:03.027Z,93.86
2023-02-22T08:53:32.715Z,93.59
2023-02-22T08:56:00.203Z,94.65
2023-02-22T08:58:29.082Z,93.30
2023-02-22T09:00:56.575Z,93.97
2023-02-22T09:03:24.186Z,93.26
2023-02-22T09:05:52.864Z,93.68
2023-02-22T09:08:20.376Z,93.07
2023-02-22T09:10:48.025Z,93.48
2023-02-22T09:13:15.552Z,92.91
2023-02-22T09:15:44.452Z,92.32
2023-02-22T09:18:14.534Z,92.46
2023-02-22T09:20:42.831Z,92.35
2023-02-22T09:23:10.611Z,92.14
2023-02-22T09:25:38.777Z,94.43
2023-02-22T09:28:06.687Z,95.21
2023-02-22T09:30:35.951Z,96.19
2023-02-22T09:33:06.760Z,96.16
2023-02-22T09:35:36.153Z,95.72
2023-02-22T09:38:06.116Z,94.85
2023-02-22T09:40:40.910Z,94.40
2023-02-22T09:43:32.289Z,95.37
2023-02-22T09:46:11.932Z,94.86
2023-02-22T09:48:52.732Z,96.12
2023-02-22T09:51:21.651Z,96.23
2023-02-22T09:53:50.685Z,95.79
2023-02-22T09:56:20.886Z,95.66
2023-02-22T09:58:52.295Z,94.05
2023-02-22T10:01:27.114Z,92.80
2023-02-22T10:04:01.662Z,91.92
2023-02-22T10:06:32.220Z,91.15
2023-02-22T10:09:02.782Z,91.68
2023-02-22T10:11:39.050Z,92.37
2023-02-22T10:14:23.220Z,93.44
2023-02-22T10:16:55.572Z,94.50
2023-02-22T10:19:29.105Z,95.24
2023-02-22T10:22:09.510Z,94.62
2023-02-22T10:24:45.471Z,92.84
2023-02-22T10:27:17.576Z,92.74
2023-02-22T10:29:47.498Z,93.22
2023-02-22T10:32:20.569Z,93.05
2023-02-22T10:34:52.755Z,93.53
2023-02-22T10:37:25.429Z,93.59
2023-02-22T10:39:56.432Z,92.71
2023-02-22T10:42:26.491Z,92.60
2023-02-22T10:44:55.118Z,93.25
2023-02-22T10:47:22.965Z,93.65
2023-02-22T10:49:53.556Z,93.15
2023-02-22T10:52:25.893Z,93.99
2023-02-22T10:55:00.975Z,94.01
2023-02-22T10:57:36.979Z,92.75
2023-02-22T11:00:20.267Z,93.00
2023-02-22T11:02:53.417Z,91.68
2023-02-22T11:05:31.411Z,90.95
2023-02-22T11:08:24.877Z,90.44
2023-02-22T11:10:53.921Z,89.28
2023-02-22T11:13:26.874Z,89.02
2023-02-22T11:15:54.969Z,88.27
2023-02-22T11:18:28.087Z,88.56
2023-02-22T11:21:07.792Z,88.44
2023-02-22T11:23:36.179Z,87.01
2023-02-22T11:26:07.737Z,86.40
2023-02-22T11:28:35.618Z,85.95
2023-02-22T11:31:15.512Z,86.25
2023-02-22T11:33:52.455Z,86.39
2023-02-22T11:36:43.339Z,86.35
2023-02-22T11:39:23.040Z,86.36
2023-02-22T11:41:50.610Z,86.16
2023-02-22T11:44:25.271Z,85.53
2023-02-22T11:46:55.600Z,85.42
2023-02-22T11:49:24.806Z,85.16
2023-02-22T11:52:07.399Z,83.79
2023-02-22T11:54:58.023Z,83.49
2023-02-22T11:57:46.270Z,83.76
2023-02-22T12:00:24.577Z,82.72
2023-02-22T12:03:03.761Z,82.65
2023-02-22T12:05:40.484Z,82.70
2023-02-22T12:08:20.434Z,82.20
2023-02-22T12:10:57.538Z,81.50
2023-02-22T12:13:34.023Z,77.98
2023-02-22T12:16:12.967Z,77.56
2023-02-22T12:18:46.115Z,77.71
2023-02-22T12:21:16.794Z,78.21
2023-02-22T12:23:52.445Z,77.30
2023-02-22T12:26:25.719Z,75.78
2023-02-22T12:28:59.299Z,75.99
2023-02-22T12:31:29.624Z,75.83
2023-02-22T12:34:02.239Z,75.59
2023-02-22T12:36:35.620Z,75.35
2023-02-22T12:39:13.138Z,76.10
2023-02-22T12:41:44.856Z,75.09
2023-02-22T12:44:20.157Z,75.56
2023-02-22T12:46:50.263Z,75.07
2023-02-22T12:49:22.477Z,73.89
2023-02-22T12:51:55.080Z,73.98
2023-02-22T12:54:29.332Z,74.68
2023-02-22T12:56:58.653Z,74.00
2023-02-22T12:59:30.598Z,74.78
2023-02-22T13:02:01.865Z,73.41
2023-02-22T13:04:31.779Z,73.42
2023-02-22T13:07:12.620Z,72.74
2023-02-22T13:09:55.802Z,72.18
2023-02-22T13:12:30.267Z,71.81
2023-02-22T13:15:04.800Z,72.31
2023-02-22T13:17:37.638Z,71.05
2023-02-22T13:20:10.874Z,70.63
2023-02-22T13:22:42.091Z,70.82
2023-02-22T13:25:16.238Z,70.85
2023-02-22T13:27:48.648Z,69.90
2023-02-22T13:30:20.865Z,69.88
2023-02-22T13:33:18.679Z,68.29
2023-02-22T13:35:57.329Z,68.85
2023-02-22T13:38:39.206Z,68.33
2023-02-22T13:41:20.828Z,68.95
2023-02-22T13:44:04.176Z,68.50
2023-02-22T13:47:00.051Z,68.37
2023-02-22T13:49:54.538Z,67.69
2023-02-22T13:52:23.306Z,67.87
2023-02-22T13:54:54.429Z,67.82
2023-02-22T13:57:25.822Z,67.24
2023-02-22T14:00:22.760Z,68.62
2023-02-22T14:03:02.838Z,67.75
2023-02-22T14:05:51.384Z,67.53
2023-02-22T14:08:42.105Z,68.60
2023-02-22T14:11:57.699Z,67.18
2023-02-22T14:14:26.637Z,67.71
2023-02-22T14:17:17.292Z,67.16
2023-02-22T14:20:16.493Z,66.83
2023-02-22T14:22:46.936Z,67.09
2023-02-22T14:25:37.302Z,66.74
2023-02-22T14:28:06.479Z,65.97
2023-02-22T14:30:37.211Z,66.65
2023-02-22T14:33:05.433Z,65.74
2023-02-22T14:35:49.151Z,65.88
2023-02-22T14:38:19.119Z,66.16
2023-02-22T14:40:49.441Z,66.41
2023-02-22T14:43:19.925Z,66.94
2023-02-22T14:45:52.980Z,67.46
2023-02-22T14:48:25.319Z,66.80
2023-02-22T14:50:54.668Z,67.59
2023-02-22T14:53:27.105Z,67.88
2023-02-22T14:55:58.265Z,67.22
2023-02-22T14:58:31.905Z,66.39
2023-02-22T15:01:00.873Z,66.79
2023-02-22T15:03:37.072Z,67.72
2023-02-22T15:06:06.274Z,67.92
2023-02-22T15:08:34.452Z,67.55
2023-02-22T15:11:03.443Z,67.40
2023-02-22T15:13:34.146Z,67.47
2023-02-22T15:16:04.384Z,68.47
2023-02-22T15:18:35.532Z,68.92
2023-02-22T15:21:10.101Z,68.99
2023-02-22T15:23:44.363Z,69.16
2023-02-22T15:26:20.095Z,68.72
2023-02-22T15:28:48.648Z,69.27
2023-02-22T15:31:22.654Z,69.24
2023-02-22T15:33:52.897Z,69.47
2023-02-22T15:36:22.693Z,68.37
2023-02-22T15:38:51.279Z,68.86
2023-02-22T15:41:27.760Z,69.27
2023-02-22T15:44:03.407Z,69.23
2023-02-22T15:46:35.058Z,68.40
2023-02-22T15:49:20.245Z,68.92
2023-02-22T15:51:51.557Z,68.58
2023-02-22T15:54:27.037Z,68.49
2023-02-22T15:56:56.555Z,68.82
2023-02-22T15:59:30.282Z,68.80
2023-02-22T16:01:59.907Z,68.96
2023-02-22T16:04:30.313Z,69.17
2023-02-22T16:07:04.882Z,69.58
2023-02-22T16:09:33.213Z,69.74
2023-02-22T16:12:12.143Z,70.08
2023-02-22T16:14:44.801Z,69.96
2023-02-22T16:17:30.594Z,69.99
2023-02-22T16:19:58.963Z,70.43
2023-02-22T16:22:29.588Z,71.10
2023-02-22T16:25:16.639Z,71.67
2023-02-22T16:27:48.310Z,71.71
2023-02-22T16:30:25.994Z,72.07
2023-02-22T16:32:56.674Z,72.30
2023-02-22T16:35:28.490Z,72.56
2023-02-22T16:37:57.988Z,73.21
2023-02-22T16:40:27.490Z,73.06
2023-02-22T16:42:55.014Z,73.50
2023-02-22T16:45:23.237Z,74.61
2023-02-22T16:47:52.588Z,74.34
2023-02-22T16:50:21.833Z,75.60
2023-02-22T16:52:49.466Z,75.48
2023-02-22T16:55:18.758Z,76.18
2023-02-22T16:57:46.273Z,75.67
2023-02-22T17:00:17.857Z,76.16
2023-02-22T17:02:45.969Z,76.44
2023-02-22T17:05:15.242Z,76.95
2023-02-22T17:07:44.082Z,77.07
2023-02-22T17:10:16.373Z,77.34
2023-02-22T17:12:46.785Z,77.15
2023-02-22T17:15:22.147Z,77.39
2023-02-22T17:17:50.335Z,78.40
2023-02-22T17:20:24.811Z,77.68
2023-02-22T17:22:53.869Z,78.52
2023-02-22T17:25:25.417Z,78.70
2023-02-22T17:27:52.957Z,78.55
2023-02-22T17:30:23.908Z,78.49
2023-02-22T17:32:52.453Z,78.89
2023-02-22T17:35:23.101Z,78.92
2023-02-22T17:37:50.952Z,79.19
2023-02-22T17:40:19.874Z,79.63
2023-02-22T17:42:47.691Z,80.02
2023-02-22T17:45:15.288Z,80.49
2023-02-22T17:47:43.288Z,80.47
2023-02-22T17:50:11.536Z,80.79
2023-02-22T17:52:39.494Z,81.17
2023-02-22T17:55:07.541Z,81.39
2023-02-22T17:57:36.841Z,80.96
2023-02-22T18:00:12.387Z,80.95
2023-02-22T18:02:42.543Z,81.15
2023-02-22T18:05:18.417Z,81.47
2023-02-22T18:07:46.937Z,81.48
2023-02-22T18:10:14.992Z,82.08
2023-02-22T18:12:47.118Z,82.55
2023-02-22T18:15:17.464Z,82.68
2023-02-22T18:17:45.660Z,82.70
2023-02-22T18:20:14.795Z,82.71
2023-02-22T18:22:44.351Z,82.84
2023-02-22T18:25:13.701Z,82.93
2023-02-22T18:27:43.074Z,83.01
2023-02-22T18:30:13.238Z,84.24
2023-02-22T18:32:40.831Z,84.32
2023-02-22T18:35:08.861Z,83.62
2023-02-22T18:37:36.828Z,83.66
2023-02-22T18:40:10.311Z,83.28
2023-02-22T18:42:38.855Z,83.44
2023-02-22T18:45:08.195Z,83.38
2023-02-22T18:47:47.546Z,83.66
2023-02-22T18:50:17.153Z,83.72
2023-02-22T18:52:48.093Z,83.81
2023-02-22T18:55:17.206Z,83.82
2023-02-22T18:57:45.160Z,83.95
2023-02-22T19:00:17.871Z,83.91
2023-02-22T19:02:47.034Z,84.15
2023-02-22T19:05:18.729Z,83.97
2023-02-22T19:07:46.756Z,84.28
2023-02-22T19:10:14.474Z,84.47
2023-02-22T19:12:42.036Z,84.22
2023-02-22T19:15:11.763Z,84.32
2023-02-22T19:17:40.629Z,84.40
2023-02-22T19:20:11.882Z,84.67
2023-02-22T19:22:39.530Z,84.92
2023-02-22T19:25:08.062Z,85.63
2023-02-22T19:27:35.796Z,85.79
2023-02-22T19:30:04.610Z,85.95
2023-02-22T19:32:33.766Z,85.46
2023-02-22T19:35:02.969Z,85.40
2023-02-22T19:37:35.963Z,85.56
2023-02-22T19:40:06.705Z,85.88
2023-02-22T19:42:34.379Z,86.07
2023-02-22T19:45:09.551Z,86.25
2023-02-22T19:47:37.377Z,87.29
2023-02-22T19:50:06.662Z,86.85
2023-02-22T19:52:38.918Z,86.87
2023-02-22T19:55:12.447Z,86.45
2023-02-22T19:57:40.845Z,86.50
2023-02-22T20:00:12.309Z,86.33
2023-02-22T20:02:42.694Z,86.10
2023-02-22T20:05:16.291Z,85.91
2023-02-22T20:07:46.256Z,86.26
2023-02-22T20:10:15.946Z,86.06
2023-02-22T20:12:43.727Z,86.56
2023-02-22T20:15:11.923Z,86.86
2023-02-22T20:17:39.559Z,86.90
2023-02-22T20:20:09.307Z,87.20
2023-02-22T20:22:36.934Z,86.65
2023-02-22T20:25:06.382Z,86.35
2023-02-22T20:27:34.650Z,86.72
2023-02-22T20:30:02.645Z,87.04
2023-02-22T20:32:36.199Z,87.07
2023-02-22T20:35:04.043Z,87.55
2023-02-22T20:37:33.384Z,87.82
2023-02-22T20:40:01.674Z,88.17
2023-02-22T20:45:38.952Z,88.45
2023-02-22T20:48:06.869Z,88.36
2023-02-22T20:50:36.058Z,87.94
2023-02-22T20:53:03.628Z,87.99
2023-02-22T20:55:31.407Z,88.32
2023-02-22T20:58:00.410Z,87.91
2023-02-22T21:00:28.039Z,87.63
2023-02-22T21:02:56.497Z,87.95
2023-02-22T21:05:24.077Z,87.99
2023-02-22T21:07:51.694Z,87.96
2023-02-22T21:10:20.977Z,89.01
2023-02-22T21:12:48.651Z,89.13
2023-02-22T21:15:17.988Z,89.79
2023-02-22T21:17:47.541Z,89.28
2023-02-22T21:20:15.416Z,89.61
2023-02-22T21:22:43.840Z,89.63
2023-02-22T21:25:13.433Z,89.34
2023-02-22T21:27:42.143Z,89.53
2023-02-22T21:30:12.382Z,89.52
2023-02-22T21:32:41.378Z,89.47
2023-02-22T21:35:09.851Z,89.49
2023-02-22T21:37:39.001Z,89.58
2023-02-22T21:40:11.887Z,89.09
2023-02-22T21:42:39.572Z,89.73
2023-02-22T21:45:08.475Z,89.58
2023-02-22T21:47:36.999Z,88.91
2023-02-22T21:50:10.485Z,88.58
2023-02-22T21:52:38.553Z,89.05
2023-02-22T21:55:07.263Z,88.57
2023-02-22T21:57:35.036Z,88.86
2023-02-22T22:00:12.844Z,88.43
2023-02-22T22:02:40.579Z,89.03
2023-02-22T22:05:10.245Z,88.42
2023-02-22T22:07:37.801Z,88.64
2023-02-22T22:10:06.826Z,88.42
2023-02-22T22:12:39.431Z,88.88
2023-02-22T22:15:13.143Z,89.53
2023-02-22T22:21:55.936Z,89.66
2023-02-22T22:24:47.074Z,89.07
2023-02-22T22:27:37.425Z,88.77
2023-02-22T22:30:53.207Z,89.37
2023-02-22T22:41:08.670Z,88.68
2023-02-22T22:46:54.720Z,89.03
2023-02-22T22:50:02.135Z,89.93
2023-02-22T22:55:51.845Z,90.58
2023-02-22T22:58:34.400Z,90.14
2023-02-22T23:01:28.021Z,89.89
2023-02-22T23:04:21.966Z,89.56
2023-02-22T23:07:45.790Z,89.14
2023-02-22T23:12:21.140Z,89.08
2023-02-22T23:14:17.047Z,89.04
2023-02-22T23:17:41.324Z,89.19
2023-02-22T23:20:38.770Z,88.91
2023-02-22T23:23:32.806Z,88.76
2023-02-22T23:27:02.480Z,89.09
2023-02-22T23:40:50.188Z,88.37
